Monmouth, Oregon
Current Conditions -  °F | °C
As of 1:56 AM on Saturday 20 Dec 2014 (Local Time) from KSLE Reporting Station
Moderate Rain Moderate Rain  
Wind Chill: 42°   Ceiling: 4300
Heat Index: 48°   Visibility: 8mi
Dew Point: 45°   Wind: 16mph
Humidity: 89%   Direction: 160°SSE
Pressure: 29.83"   Gusts: 25mph
Location:  44.85°N, 123.23°W
Report Text: KSLE 200956Z AUTO 16014G22KT 8SM RA FEW025 SCT034 OVC043 09/07 A2983 RMK AO2 SLP103 P0008 T00890072
Loading
Personal Weather Stations






























Interactive Weather Map New forecast layout! Learn more

10-Day Weather Forecast

Advertisements
Track Severe Weather on mobile